Pagina principale
METAR-TAF:

METAR-TAF

Aeroporti :

Lankaran, Azerbaigian

latitudine: 38-44-47N, longitudine: 048-49-04E, altezza: 9 m

Osservazione

Il bollettino è stato emesso 19 minuti fa, alle 08:00 UTC
Vento 2 kt da direzioni variabili
Temperature 33°C
Umidità 21%
Pressione 1016 hPa
Visibilità 10 km o più

METAR: UBBL 200800Z VRB02KT 9999 NSC 33/08 Q1016 R33/CLRD// NOSIG RMK MT OP

Ora: 12:19 (08:19 UTC)

Previsione

Il bollettino è stato emesso 3 ore e 7 minuti fa, alle 05:12 UTC
Previsione valida dal 20 alle 06 UTC al 21 alle 06 UTC
Vento 4 kt da direzioni variabili
Visibilità 10 km o più
Nubi sparse ad un'altezza di 10000 ft
Evoluzione graduale
dal 20 alle 07 UTC al 20 alle 09 UTC
Vento 8 kt da sud-est
Temporaneamente
dal 20 alle 22 UTC al 21 alle 03 UTC
Visibilità: 4000 m
Poco nuvoloso ad un'altezza di 1000 ft
foschia

TAF: UBBL 200512Z 2006/2106 VRB04KT 9999 SCT100 TX34/1910Z TN17/2002Z BECMG 2007/2009 14008KT TEMPO 2022/2103 4000 BR FEW010

Osservazioni e previsioni meteorologiche di più di 4000 aeroporti (messaggi METAR e TAF).

Le stazioni disponibili sono rappresentate dai dischi gialli e rossi sulla carta.

Puntare il mouse per vedere il nome della stazione.

Clicca sopra per visualizzare le osservazioni e previsioni meteorologiche.

Per cambiare la mappa : fare clic sui pulsanti verdi con una croce nera per ingrandire, il pulsante verde con un trattino per diminuire, o sulla freccia verde per le mappe adiacenti.


METAR-TAF: